createdAt,value
2018-06-05T00:01:22.548Z,9.37
2018-06-05T00:03:50.747Z,10.47
2018-06-05T00:06:18.941Z,10.20
2018-06-05T00:08:47.101Z,9.90
2018-06-05T00:11:15.284Z,10.27
2018-06-05T00:13:43.479Z,10.17
2018-06-05T00:16:11.644Z,11.03
2018-06-05T00:18:39.876Z,10.97
2018-06-05T00:21:08.089Z,11.23
2018-06-05T00:23:36.722Z,9.90
2018-06-05T00:26:04.924Z,9.50
2018-06-05T00:28:33.107Z,10.43
2018-06-05T00:31:01.273Z,11.07
2018-06-05T00:33:29.487Z,10.17
2018-06-05T00:35:57.649Z,10.87
2018-06-05T00:38:25.813Z,11.10
2018-06-05T00:40:53.998Z,10.40
2018-06-05T00:43:22.208Z,10.73
2018-06-05T00:45:50.808Z,11.00
2018-06-05T00:48:19.819Z,11.43
2018-06-05T00:50:47.767Z,11.00
2018-06-05T00:53:15.953Z,11.40
2018-06-05T00:55:44.112Z,11.57
2018-06-05T00:58:12.313Z,10.80
2018-06-05T01:00:40.481Z,11.50
2018-06-05T01:03:08.429Z,12.20
2018-06-05T01:05:37.269Z,11.60
2018-06-05T01:08:05.184Z,11.43
2018-06-05T01:10:33.368Z,11.17
2018-06-05T01:13:01.602Z,11.10
2018-06-05T01:15:29.779Z,11.27
2018-06-05T01:17:57.949Z,10.50
2018-06-05T01:20:26.352Z,10.13
2018-06-05T01:22:54.589Z,11.03
2018-06-05T01:25:22.766Z,10.47
2018-06-05T01:27:50.928Z,11.50
2018-06-05T01:30:19.081Z,11.57
2018-06-05T01:32:47.260Z,11.13
2018-06-05T01:35:15.488Z,11.23
2018-06-05T01:37:43.660Z,10.97
2018-06-05T01:40:11.886Z,11.47
2018-06-05T01:42:40.042Z,10.40
2018-06-05T01:45:08.237Z,11.07
2018-06-05T01:47:36.416Z,11.10
2018-06-05T01:50:04.605Z,10.93
2018-06-05T01:52:32.832Z,11.53
2018-06-05T01:55:01.006Z,10.63
2018-06-05T01:57:28.983Z,11.00
2018-06-05T01:59:57.477Z,11.23
2018-06-05T02:02:25.661Z,12.17
2018-06-05T02:04:53.827Z,11.73
2018-06-05T02:07:22.465Z,11.57
2018-06-05T02:09:50.723Z,11.47
2018-06-05T02:12:18.901Z,11.87
2018-06-05T02:14:47.177Z,11.60
2018-06-05T02:17:15.663Z,11.13
2018-06-05T02:19:43.886Z,11.23
2018-06-05T02:22:12.056Z,12.47
2018-06-05T02:24:40.242Z,12.53
2018-06-05T02:27:08.420Z,12.43
2018-06-05T02:29:36.572Z,10.90
2018-06-05T02:32:04.737Z,12.07
2018-06-05T02:34:32.936Z,11.57
2018-06-05T02:37:01.140Z,12.40
2018-06-05T02:39:29.373Z,12.30
2018-06-05T02:41:57.555Z,12.27
2018-06-05T02:44:25.868Z,12.40
2018-06-05T02:46:54.369Z,13.63
2018-06-05T02:49:22.284Z,12.97
2018-06-05T02:51:51.127Z,12.73
2018-06-05T02:54:19.349Z,11.97
2018-06-05T02:56:47.749Z,13.00
2018-06-05T02:59:15.925Z,12.80
2018-06-05T03:01:44.108Z,12.40
2018-06-05T03:04:12.300Z,11.90
2018-06-05T03:06:40.532Z,12.30
2018-06-05T03:09:08.684Z,11.80
2018-06-05T03:11:36.848Z,12.97
2018-06-05T03:14:05.219Z,12.27
2018-06-05T03:16:33.380Z,12.23
2018-06-05T03:19:01.560Z,12.27
2018-06-05T03:21:29.911Z,13.80
2018-06-05T03:23:58.080Z,12.33
2018-06-05T03:26:26.242Z,11.97
2018-06-05T03:28:55.846Z,12.47
2018-06-05T03:31:24.006Z,12.50
2018-06-05T03:33:52.200Z,12.93
2018-06-05T03:36:20.133Z,11.73
2018-06-05T03:38:48.365Z,12.97
2018-06-05T03:41:16.681Z,14.03
2018-06-05T03:43:44.850Z,13.43
2018-06-05T03:46:13.046Z,13.77
2018-06-05T03:48:41.229Z,13.27
2018-06-05T03:51:09.425Z,13.70
2018-06-05T03:53:37.588Z,12.97
2018-06-05T03:56:05.755Z,14.07
2018-06-05T03:58:33.988Z,14.37
2018-06-05T04:01:02.257Z,13.87
2018-06-05T04:03:30.449Z,14.50
2018-06-05T04:05:58.720Z,14.43
2018-06-05T04:08:26.903Z,14.50
2018-06-05T04:10:55.354Z,13.43
2018-06-05T04:13:23.559Z,13.93
2018-06-05T04:15:51.812Z,13.37
2018-06-05T04:18:20.034Z,12.73
2018-06-05T04:20:48.179Z,12.73
2018-06-05T04:23:16.134Z,14.13
2018-06-05T04:25:44.307Z,12.40
2018-06-05T04:28:12.511Z,12.60
2018-06-05T04:30:40.976Z,12.53
2018-06-05T04:33:09.194Z,12.27
2018-06-05T04:35:37.345Z,12.30
2018-06-05T04:38:05.526Z,12.47
2018-06-05T04:40:33.538Z,12.13
2018-06-05T04:43:01.777Z,12.73
2018-06-05T04:45:29.984Z,12.67
2018-06-05T04:47:58.256Z,11.33
2018-06-05T04:50:26.519Z,11.10
2018-06-05T04:52:54.695Z,11.70
2018-06-05T04:55:22.889Z,12.43
2018-06-05T04:57:51.179Z,11.20
2018-06-05T05:00:19.582Z,11.43
2018-06-05T05:02:47.878Z,10.93
2018-06-05T05:05:16.038Z,11.53
2018-06-05T05:07:44.254Z,11.73
2018-06-05T05:10:12.435Z,11.10
2018-06-05T05:12:40.608Z,11.43
2018-06-05T05:15:08.808Z,11.23
2018-06-05T05:17:37.334Z,11.20
2018-06-05T05:20:05.543Z,11.30
2018-06-05T05:22:34.092Z,11.20
2018-06-05T05:25:02.329Z,10.70
2018-06-05T05:27:30.556Z,10.67
2018-06-05T05:29:58.721Z,11.10
2018-06-05T05:32:26.916Z,12.03
2018-06-05T05:34:55.424Z,11.67
2018-06-05T05:37:23.654Z,10.97
2018-06-05T05:39:51.946Z,11.33
2018-06-05T05:42:20.204Z,11.50
2018-06-05T05:44:48.351Z,11.77
2018-06-05T05:47:16.317Z,12.13
2018-06-05T05:49:44.500Z,10.77
2018-06-05T05:52:12.775Z,11.60
2018-06-05T05:54:40.946Z,10.30
2018-06-05T05:57:09.144Z,10.87
2018-06-05T05:59:37.299Z,10.53
2018-06-05T06:02:05.516Z,10.33
2018-06-05T06:04:33.697Z,11.23
2018-06-05T06:07:01.877Z,10.23
2018-06-05T06:09:30.076Z,10.97
2018-06-05T06:11:58.232Z,10.03
2018-06-05T06:14:26.391Z,10.37
2018-06-05T06:16:54.562Z,11.17
2018-06-05T06:19:22.729Z,11.53
2018-06-05T06:21:50.957Z,11.00
2018-06-05T06:24:19.118Z,11.30
2018-06-05T06:26:47.407Z,10.47
2018-06-05T06:29:15.548Z,10.70
2018-06-05T06:31:43.724Z,10.20
2018-06-05T06:34:12.164Z,11.23
2018-06-05T06:36:40.378Z,11.57
2018-06-05T06:39:09.355Z,9.60
2018-06-05T06:41:38.290Z,10.90
2018-06-05T06:44:06.524Z,10.27
2018-06-05T06:46:34.740Z,11.00
2018-06-05T06:49:09.552Z,9.33
2018-06-05T06:51:37.725Z,11.23
2018-06-05T06:54:05.903Z,10.23
2018-06-05T06:56:34.080Z,9.73
2018-06-05T06:59:02.254Z,9.20
2018-06-05T07:01:30.459Z,9.67
2018-06-05T07:03:58.692Z,10.60
2018-06-05T07:06:29.041Z,9.20
2018-06-05T07:08:58.820Z,9.03
2018-06-05T07:11:27.534Z,9.00
2018-06-05T07:13:55.764Z,9.15
2018-06-05T07:16:23.912Z,9.33
2018-06-05T07:18:52.105Z,9.28
2018-06-05T07:21:20.031Z,9.70
2018-06-05T07:23:48.196Z,9.15
2018-06-05T07:26:16.758Z,8.85
2018-06-05T07:28:44.913Z,8.53
2018-06-05T07:31:13.093Z,8.83
2018-06-05T07:33:41.274Z,9.08
2018-06-05T07:36:09.439Z,9.28
2018-06-05T07:38:37.606Z,8.10
2018-06-05T07:41:05.758Z,8.48
2018-06-05T07:43:34.042Z,8.28
2018-06-05T07:46:02.205Z,9.20
2018-06-05T07:48:30.400Z,8.20
2018-06-05T07:50:58.562Z,8.68
2018-06-05T07:53:26.731Z,7.72
2018-06-05T07:55:54.896Z,8.25
2018-06-05T07:58:23.056Z,9.33
2018-06-05T08:00:51.218Z,8.95
2018-06-05T08:03:19.132Z,8.93
2018-06-05T08:05:47.298Z,7.70
2018-06-05T08:08:15.461Z,8.93
2018-06-05T08:10:43.639Z,8.63
2018-06-05T08:13:11.798Z,8.88
2018-06-05T08:15:39.968Z,7.35
2018-06-05T08:18:08.161Z,8.28
2018-06-05T08:20:36.340Z,7.92
2018-06-05T08:23:04.540Z,8.98
2018-06-05T08:25:32.692Z,8.38
2018-06-05T08:28:00.683Z,8.33
2018-06-05T08:30:28.859Z,8.85
2018-06-05T08:32:57.017Z,7.80
2018-06-05T08:35:25.185Z,8.45
2018-06-05T08:37:53.344Z,7.85
2018-06-05T08:40:21.481Z,8.48
2018-06-05T08:42:49.652Z,7.90
2018-06-05T08:45:17.847Z,8.28
2018-06-05T08:47:45.992Z,7.80
2018-06-05T08:50:14.257Z,7.55
2018-06-05T08:52:42.423Z,7.83
2018-06-05T08:55:10.611Z,7.67
2018-06-05T08:57:38.786Z,8.18
2018-06-05T09:00:06.937Z,7.40
2018-06-05T09:02:35.101Z,7.60
2018-06-05T09:05:03.241Z,8.35
2018-06-05T09:07:31.382Z,8.03
2018-06-05T09:09:59.552Z,8.45
2018-06-05T09:12:27.705Z,7.87
2018-06-05T09:14:55.873Z,7.37
2018-06-05T09:17:24.018Z,7.55
2018-06-05T09:19:52.191Z,7.83
2018-06-05T09:22:20.336Z,8.15
2018-06-05T09:24:48.496Z,7.65
2018-06-05T09:27:17.040Z,8.28
2018-06-05T09:29:45.223Z,8.63
2018-06-05T09:32:13.373Z,8.23
2018-06-05T09:34:41.525Z,8.83
2018-06-05T09:37:09.726Z,8.45
2018-06-05T09:39:38.012Z,8.25
2018-06-05T09:42:06.180Z,8.05
2018-06-05T09:44:34.075Z,8.50
2018-06-05T09:47:02.261Z,8.00
2018-06-05T09:49:30.449Z,7.53
2018-06-05T09:51:58.602Z,8.28
2018-06-05T09:54:27.692Z,8.25
2018-06-05T09:56:55.621Z,7.58
2018-06-05T09:59:23.774Z,8.55
2018-06-05T10:01:51.927Z,8.15
2018-06-05T10:04:20.221Z,8.30
2018-06-05T10:06:48.359Z,7.97
2018-06-05T10:09:16.521Z,8.68
2018-06-05T10:11:44.690Z,8.28
2018-06-05T10:14:12.889Z,7.20
2018-06-05T10:16:41.008Z,7.33
2018-06-05T10:19:09.174Z,7.97
2018-06-05T10:21:37.360Z,6.80
2018-06-05T10:24:05.542Z,8.08
2018-06-05T10:26:33.715Z,7.50
2018-06-05T10:29:01.882Z,7.62
2018-06-05T10:31:30.039Z,8.15
2018-06-05T10:33:58.200Z,8.18
2018-06-05T10:36:26.329Z,7.70
2018-06-05T10:38:54.498Z,7.83
2018-06-05T10:41:22.673Z,8.20
2018-06-05T10:43:50.867Z,7.62
2018-06-05T10:46:19.036Z,8.23
2018-06-05T10:48:47.204Z,8.05
2018-06-05T10:51:15.923Z,7.87
2018-06-05T10:53:44.122Z,8.23
2018-06-05T10:56:12.257Z,7.55
2018-06-05T10:58:40.495Z,7.40
2018-06-05T11:01:08.638Z,7.75
2018-06-05T11:03:36.771Z,7.22
2018-06-05T11:06:04.944Z,6.85
2018-06-05T11:08:33.092Z,7.05
2018-06-05T11:11:01.255Z,6.62
2018-06-05T11:13:29.408Z,6.15
2018-06-05T11:15:57.575Z,7.03
2018-06-05T11:18:25.722Z,5.33
2018-06-05T11:20:53.898Z,5.95
2018-06-05T11:23:22.035Z,5.70
2018-06-05T11:25:50.206Z,5.65
2018-06-05T11:28:18.360Z,5.70
2018-06-05T11:30:46.533Z,6.45
2018-06-05T11:33:14.712Z,5.60
2018-06-05T11:35:42.865Z,5.47
2018-06-05T11:38:11.032Z,5.40
2018-06-05T11:40:39.193Z,5.10
2018-06-05T11:43:07.365Z,5.37
2018-06-05T11:45:35.516Z,5.72
2018-06-05T11:48:03.708Z,5.72
2018-06-05T11:50:31.844Z,5.40
2018-06-05T11:53:00.026Z,5.53
2018-06-05T11:55:28.230Z,4.97
2018-06-05T11:57:56.399Z,4.28
2018-06-05T12:00:24.629Z,3.60
2018-06-05T12:02:52.550Z,4.30
2018-06-05T12:05:20.718Z,3.77
2018-06-05T12:07:48.877Z,4.85
2018-06-05T12:10:17.084Z,4.58
2018-06-05T12:12:45.242Z,3.95
2018-06-05T12:15:13.468Z,4.20
2018-06-05T12:17:41.669Z,4.62
2018-06-05T12:20:09.776Z,4.65
2018-06-05T12:22:38.969Z,4.17
2018-06-05T12:25:07.150Z,4.90
2018-06-05T12:27:35.285Z,4.97
2018-06-05T12:30:03.458Z,4.90
2018-06-05T12:32:31.619Z,5.12
2018-06-05T12:34:59.789Z,4.50
2018-06-05T12:37:27.985Z,5.30
2018-06-05T12:39:56.180Z,5.10
2018-06-05T12:42:24.103Z,5.20
2018-06-05T12:44:52.253Z,5.00
2018-06-05T12:47:20.424Z,5.05
2018-06-05T12:49:48.586Z,5.20
2018-06-05T12:52:16.921Z,5.20
2018-06-05T12:54:45.215Z,5.40
2018-06-05T12:57:13.374Z,5.20
2018-06-05T12:59:41.521Z,5.20
2018-06-05T13:02:09.696Z,5.42
2018-06-05T13:04:37.902Z,5.40
2018-06-05T13:07:06.042Z,5.20
2018-06-05T13:09:34.194Z,5.20
2018-06-05T13:12:02.382Z,5.20
2018-06-05T13:14:30.541Z,5.78
2018-06-05T13:16:58.699Z,5.20
2018-06-05T13:19:26.877Z,5.53
2018-06-05T13:21:55.037Z,5.53
2018-06-05T13:24:23.320Z,5.00
2018-06-05T13:26:51.464Z,5.78
2018-06-05T13:29:19.658Z,5.12
2018-06-05T13:31:47.833Z,5.65
2018-06-05T13:34:15.974Z,5.58
2018-06-05T13:36:44.183Z,5.50
2018-06-05T13:39:12.328Z,5.80
2018-06-05T13:41:40.492Z,5.90
2018-06-05T13:44:08.644Z,6.10
2018-06-05T13:46:37.061Z,5.83
2018-06-05T13:49:05.561Z,6.28
2018-06-05T13:51:33.753Z,5.75
2018-06-05T13:54:01.960Z,6.30
2018-06-05T13:56:30.104Z,6.12
2018-06-05T13:58:58.693Z,6.35
2018-06-05T14:01:26.888Z,6.87
2018-06-05T14:03:55.055Z,5.95
2018-06-05T14:06:23.249Z,6.05
2018-06-05T14:08:51.447Z,5.83
2018-06-05T14:11:19.617Z,6.45
2018-06-05T14:13:47.925Z,6.50
2018-06-05T14:16:16.507Z,6.35
2018-06-05T14:18:44.712Z,6.30
2018-06-05T14:21:12.908Z,6.00
2018-06-05T14:23:41.061Z,6.90
2018-06-05T14:26:09.209Z,7.15
2018-06-05T14:28:37.372Z,6.85
2018-06-05T14:31:06.616Z,6.97
2018-06-05T14:33:34.796Z,7.60
2018-06-05T14:36:03.020Z,6.87
2018-06-05T14:38:31.192Z,7.00
2018-06-05T14:40:59.348Z,7.20
2018-06-05T14:43:27.496Z,7.53
2018-06-05T14:45:55.720Z,7.60
2018-06-05T14:48:23.851Z,7.67
2018-06-05T14:50:52.031Z,7.42
2018-06-05T14:53:20.183Z,7.80
2018-06-05T14:55:48.364Z,7.33
2018-06-05T14:58:16.525Z,7.20
2018-06-05T15:00:44.705Z,7.83
2018-06-05T15:03:13.912Z,6.95
2018-06-05T15:05:42.192Z,6.60
2018-06-05T15:08:10.366Z,7.05
2018-06-05T15:10:38.519Z,7.08
2018-06-05T15:13:06.768Z,7.17
2018-06-05T15:15:34.879Z,7.12
2018-06-05T15:18:03.052Z,7.05
2018-06-05T15:20:31.203Z,7.08
2018-06-05T15:23:00.014Z,7.00
2018-06-05T15:25:28.165Z,6.83
2018-06-05T15:27:56.332Z,6.17
2018-06-05T15:30:24.256Z,6.62
2018-06-05T15:32:52.585Z,6.85
2018-06-05T15:35:20.765Z,6.20
2018-06-05T15:37:48.686Z,7.12
2018-06-05T15:40:16.852Z,7.25
2018-06-05T15:42:45.034Z,7.10
2018-06-05T15:45:13.204Z,7.33
2018-06-05T15:47:41.405Z,7.05
2018-06-05T15:50:09.597Z,7.42
2018-06-05T15:52:37.764Z,7.58
2018-06-05T15:55:06.493Z,7.53
2018-06-05T15:57:34.422Z,7.62
2018-06-05T16:00:02.614Z,8.05
2018-06-05T16:02:30.793Z,7.95
2018-06-05T16:04:58.984Z,8.15
2018-06-05T16:07:27.120Z,8.23
2018-06-05T16:09:55.373Z,8.70
2018-06-05T16:12:23.523Z,8.38
2018-06-05T16:14:51.697Z,8.80
2018-06-05T16:17:20.018Z,8.48
2018-06-05T16:19:48.172Z,8.65
2018-06-05T16:22:16.395Z,8.50
2018-06-05T16:24:44.580Z,8.83
2018-06-05T16:27:12.747Z,8.93
2018-06-05T16:29:41.093Z,8.70
2018-06-05T16:32:09.308Z,8.90
2018-06-05T16:34:37.487Z,8.30
2018-06-05T16:37:05.650Z,9.00
2018-06-05T16:39:34.235Z,8.95
2018-06-05T16:42:02.796Z,8.53
2018-06-05T16:44:31.097Z,8.63
2018-06-05T16:46:59.381Z,8.35
2018-06-05T16:49:27.724Z,8.75
2018-06-05T16:51:56.278Z,9.03
2018-06-05T16:54:24.666Z,8.88
2018-06-05T16:56:52.988Z,9.03
2018-06-05T16:59:21.386Z,9.05
2018-06-05T17:01:49.631Z,9.23
2018-06-05T17:04:17.815Z,9.25
2018-06-05T17:06:46.155Z,8.95
2018-06-05T17:09:14.535Z,9.05
2018-06-05T17:11:42.916Z,9.20
2018-06-05T17:14:11.485Z,9.50
2018-06-05T17:16:40.017Z,8.90
2018-06-05T17:19:08.339Z,9.00
2018-06-05T17:21:36.685Z,9.40
2018-06-05T17:24:05.105Z,9.63
2018-06-05T17:26:33.632Z,9.28
2018-06-05T17:29:01.986Z,9.20
2018-06-05T17:31:30.486Z,9.48
2018-06-05T17:33:58.939Z,9.18
2018-06-05T17:36:27.352Z,9.33
2018-06-05T17:38:55.779Z,9.55
2018-06-05T17:41:26.088Z,9.83
2018-06-05T17:43:55.060Z,9.78
2018-06-05T17:46:23.891Z,9.43
2018-06-05T17:48:52.306Z,9.58
2018-06-05T17:51:20.777Z,9.53
2018-06-05T17:53:49.157Z,9.80
2018-06-05T17:56:17.546Z,9.85
2018-06-05T17:58:45.813Z,9.25
2018-06-05T18:01:13.996Z,9.33
2018-06-05T18:03:42.164Z,9.78
2018-06-05T18:06:10.147Z,9.95
2018-06-05T18:08:38.703Z,9.00
2018-06-05T18:11:06.995Z,9.43
2018-06-05T18:13:35.206Z,9.60
2018-06-05T18:16:03.395Z,9.53
2018-06-05T18:18:31.713Z,9.43
2018-06-05T18:20:59.865Z,9.70
2018-06-05T18:23:28.059Z,9.50
2018-06-05T18:25:56.236Z,9.10
2018-06-05T18:28:24.392Z,9.43
2018-06-05T18:30:52.573Z,9.17
2018-06-05T18:33:20.744Z,9.23
2018-06-05T18:35:48.932Z,8.97
2018-06-05T18:38:17.460Z,9.67
2018-06-05T18:40:45.401Z,11.47
2018-06-05T18:43:13.556Z,10.63
2018-06-05T18:45:41.719Z,9.93
2018-06-05T18:48:09.901Z,9.50
2018-06-05T18:50:38.328Z,9.20
2018-06-05T18:53:07.453Z,8.87
2018-06-05T18:55:35.617Z,9.97
2018-06-05T18:58:03.780Z,9.80
2018-06-05T19:00:32.168Z,9.47
2018-06-05T19:03:00.377Z,9.47
2018-06-05T19:05:28.527Z,9.17
2018-06-05T19:07:56.728Z,9.33
2018-06-05T19:10:25.027Z,9.53
2018-06-05T19:12:53.336Z,8.93
2018-06-05T19:15:21.606Z,9.13
2018-06-05T19:17:49.808Z,10.10
2018-06-05T19:20:18.010Z,9.80
2018-06-05T19:22:46.188Z,10.10
2018-06-05T19:25:14.369Z,9.50
2018-06-05T19:27:42.593Z,9.60
2018-06-05T19:30:10.785Z,9.47
2018-06-05T19:32:39.013Z,9.40
2018-06-05T19:35:06.965Z,9.30
2018-06-05T19:37:35.317Z,10.17
2018-06-05T19:40:03.529Z,9.30
2018-06-05T19:42:31.696Z,10.00
2018-06-05T19:45:00.472Z,9.27
2018-06-05T19:47:28.762Z,10.23
2018-06-05T19:49:56.969Z,10.20
2018-06-05T19:52:25.128Z,9.37
2018-06-05T19:54:53.395Z,9.77
2018-06-05T19:57:21.643Z,10.00
2018-06-05T19:59:49.908Z,10.67
2018-06-05T20:02:18.167Z,12.07
2018-06-05T20:04:46.336Z,11.30
2018-06-05T20:07:14.564Z,12.77
2018-06-05T20:09:42.739Z,11.97
2018-06-05T20:12:10.938Z,11.43
2018-06-05T20:14:39.278Z,11.73
2018-06-05T20:17:07.444Z,12.00
2018-06-05T20:19:35.657Z,13.43
2018-06-05T20:22:03.861Z,12.30
2018-06-05T20:24:32.059Z,12.53
2018-06-05T20:27:00.262Z,12.40
2018-06-05T20:29:28.468Z,12.93
2018-06-05T20:31:56.707Z,12.43
2018-06-05T20:34:24.899Z,13.23
2018-06-05T20:36:53.108Z,12.10
2018-06-05T20:39:21.312Z,12.80
2018-06-05T20:41:50.129Z,13.17
2018-06-05T20:44:18.362Z,12.73
2018-06-05T20:46:46.931Z,13.00
2018-06-05T20:49:15.109Z,12.77
2018-06-05T20:51:43.439Z,12.63
2018-06-05T20:54:11.733Z,12.87
2018-06-05T20:56:39.873Z,12.50
2018-06-05T20:59:08.104Z,12.50
2018-06-05T21:01:36.283Z,13.53
2018-06-05T21:04:04.514Z,13.40
2018-06-05T21:06:32.712Z,12.87
2018-06-05T21:09:00.978Z,13.50
2018-06-05T21:11:29.223Z,14.03
2018-06-05T21:13:57.744Z,12.73
2018-06-05T21:16:26.108Z,13.03
2018-06-05T21:18:54.365Z,14.30
2018-06-05T21:21:23.110Z,14.57
2018-06-05T21:23:51.541Z,14.37
2018-06-05T21:26:19.784Z,14.33
2018-06-05T21:28:48.052Z,14.70
2018-06-05T21:31:16.284Z,14.57
2018-06-05T21:33:44.503Z,14.73
2018-06-05T21:36:12.695Z,14.27
2018-06-05T21:38:41.006Z,15.50
2018-06-05T21:41:09.333Z,15.13
2018-06-05T21:43:37.574Z,16.43
2018-06-05T21:46:05.753Z,16.60
2018-06-05T21:48:34.158Z,16.13
2018-06-05T21:51:02.415Z,15.53
2018-06-05T21:53:30.609Z,15.93
2018-06-05T21:55:58.817Z,15.57
2018-06-05T21:58:27.000Z,15.90
2018-06-05T22:00:55.180Z,17.27
2018-06-05T22:03:23.398Z,16.10
2018-06-05T22:05:51.663Z,16.40
2018-06-05T22:08:19.904Z,16.37
2018-06-05T22:10:48.103Z,16.53
2018-06-05T22:13:16.180Z,16.30
2018-06-05T22:15:44.343Z,16.37
2018-06-05T22:18:12.504Z,15.73
2018-06-05T22:20:40.692Z,16.73
2018-06-05T22:23:09.909Z,16.23
2018-06-05T22:25:38.136Z,16.63
2018-06-05T22:28:06.326Z,16.73
2018-06-05T22:30:34.529Z,16.27
2018-06-05T22:33:02.734Z,17.13
2018-06-05T22:35:30.929Z,17.10
2018-06-05T22:37:59.117Z,17.47
2018-06-05T22:40:27.313Z,18.30
2018-06-05T22:42:55.488Z,18.23
2018-06-05T22:45:24.361Z,17.33
2018-06-05T22:47:52.544Z,17.20
2018-06-05T22:50:20.708Z,18.27
2018-06-05T22:52:48.887Z,18.90
2018-06-05T22:55:17.077Z,17.63
2018-06-05T22:57:45.255Z,19.27
2018-06-05T23:00:17.354Z,17.63
2018-06-05T23:02:46.393Z,18.00
2018-06-05T23:05:14.541Z,19.40
2018-06-05T23:07:42.532Z,18.97
2018-06-05T23:10:10.750Z,18.83
2018-06-05T23:12:38.899Z,18.90
2018-06-05T23:15:07.504Z,19.63
2018-06-05T23:17:35.685Z,18.83
2018-06-05T23:20:03.863Z,18.63
2018-06-05T23:22:32.065Z,18.90
2018-06-05T23:25:00.240Z,18.97
2018-06-05T23:27:28.486Z,19.80
2018-06-05T23:29:56.664Z,20.00
2018-06-05T23:32:24.839Z,19.97
2018-06-05T23:34:53.103Z,20.20
2018-06-05T23:37:22.285Z,22.10
2018-06-05T23:39:50.452Z,23.03
2018-06-05T23:42:18.999Z,22.53
2018-06-05T23:44:47.169Z,21.13
2018-06-05T23:47:15.350Z,22.20
2018-06-05T23:49:43.627Z,21.53
2018-06-05T23:52:11.909Z,22.10
2018-06-05T23:54:40.095Z,21.67
2018-06-05T23:57:08.267Z,21.70
2018-06-05T23:59:36.472Z,21.13
